Latest Weather Observations for Adelaide

IDS60901

Issued at 12:31 pm CST Sunday 26 April 2015 (issued every 10 minutes, with the page automatically refreshed every 10 minutes)

About weather observations | Map of Adelaide area stations | Latest observations for Adelaide area | Other Formats
Station Details ID: 023090 Name: KENT TOWN Lat: -34.92 Lon: 138.62 Height: 48.0 m
Data from the previous 72 hours. | See also: Recent months at Adelaide
Date/Time
CST
Tmp

°C
App
Tmp
°C
Dew
Point
°C
Rel
Hum
%
Delta-T

°C
Wind Press
QNH
hPa
Press
MSL
hPa
Rain
since
9 am
mm
Dir
 
Spd
km/h
Gust
km/h
Spd
kts
Gust
kts
26/12:30pm 16.8 14.0 9.9 64 3.6 WSW 15 20 8 11 1024.5 - 0.0
26/12:00pm 15.6 13.4 9.2 65 3.3 SSW 11 20 6 11 1024.7 1024.7 0.0
26/11:30am 14.5 11.7 10.1 75 2.3 S 15 26 8 14 1025.1 - 0.0
26/11:00am 15.1 12.3 9.9 71 2.7 WSW 15 19 8 10 1025.1 - 0.0
26/10:30am 14.6 12.0 9.3 70 2.7 SW 13 26 7 14 1025.2 - 0.0
26/10:00am 15.6 13.1 8.0 60 3.8 S 11 24 6 13 1025.1 - 0.0
26/09:30am 15.1 12.6 8.1 63 3.5 S 11 22 6 12 1025.0 - 0.0
26/09:00am 13.7 12.7 8.9 73 2.4 SSW 4 7 2 4 1025.0 1025.0 1.0
26/08:30am 12.1 10.9 9.5 84 1.3 SW 6 11 3 6 1024.9 - 1.0
26/08:00am 11.4 10.9 9.4 87 1.0 SW 2 7 1 4 1024.6 - 1.0
26/07:30am 10.0 9.4 9.0 93 0.5 SSE 2 7 1 4 1024.1 - 1.0
26/07:00am 8.7 8.3 8.3 97 0.2 CALM 0 0 0 0 1023.8 - 1.0
26/06:30am 8.6 8.1 8.0 96 0.3 CALM 0 6 0 3 1023.3 - 1.0
26/06:00am 8.1 7.1 7.5 96 0.3 SW 2 6 1 3 1023.0 1023.0 1.0
26/05:30am 8.1 7.5 7.2 94 0.4 CALM 0 0 0 0 1022.7 - 1.0
26/05:00am 8.5 8.0 7.7 95 0.4 CALM 0 0 0 0 1022.5 - 1.0
26/04:30am 8.8 7.5 7.7 93 0.5 SSE 4 7 2 4 1022.3 - 1.0
26/04:00am 8.7 8.1 7.6 93 0.5 CALM 0 0 0 0 1022.1 - 1.0
26/03:30am 9.2 8.7 7.7 90 0.7 CALM 0 0 0 0 1021.9 - 1.0
26/03:00am 10.0 9.2 8.1 88 0.9 SSE 2 7 1 4 1021.9 1021.9 1.0
26/02:30am 10.1 9.6 7.8 86 1.1 CALM 0 0 0 0 1022.1 - 1.0
26/02:00am 10.9 10.3 7.6 80 1.6 CALM 0 2 0 1 1022.1 - 1.0
26/01:30am 11.4 10.5 7.9 79 1.7 S 2 9 1 5 1021.8 - 1.0
26/01:00am 11.1 10.7 8.4 83 1.3 CALM 0 0 0 0 1021.7 - 1.0
26/12:30am 11.3 10.1 8.2 81 1.5 S 4 7 2 4 1021.6 - 1.0
26/12:00am 12.2 10.7 8.6 78 1.8 S 6 13 3 7 1021.5 1021.5 1.0
 
Date/Time
CST
Tmp

°C
App
Tmp
°C
Dew
Point
°C
Rel
Hum
%
Delta-T

°C
Wind Press
QNH
hPa
Press
MSL
hPa
Rain
since
9 am
mm
Dir
 
Spd
km/h
Gust
km/h
Spd
kts
Gust
kts
25/11:30pm 12.2 11.3 9.4 83 1.4 S 4 9 2 5 1021.4 - 1.0
25/11:00pm 11.8 11.8 9.8 87 1.0 CALM 0 0 0 0 1021.4 - 1.0
25/10:30pm 11.5 11.5 9.9 90 0.8 CALM 0 0 0 0 1021.3 - 1.0
25/10:00pm 11.6 10.2 9.6 87 1.0 SSW 7 11 4 6 1021.0 - 1.0
25/09:30pm 11.4 10.3 9.8 90 0.8 SSW 6 9 3 5 1020.7 - 1.0
25/09:00pm 11.9 11.3 10.3 90 0.8 SSW 4 7 2 4 1020.6 1020.6 1.0
25/08:30pm 12.3 12.2 10.8 90 0.8 SSW 2 9 1 5 1020.4 - 1.0
25/08:00pm 12.7 11.3 11.0 89 0.9 S 9 19 5 10 1020.1 - 1.0
25/07:30pm 13.4 11.8 10.3 81 1.6 SSW 9 15 5 8 1019.7 - 1.0
25/07:00pm 13.6 11.6 10.3 80 1.7 SSW 11 20 6 11 1019.3 - 1.0
25/06:30pm 13.8 11.4 9.9 77 2.0 SSW 13 28 7 15 1018.7 - 1.0
25/06:00pm 14.0 11.5 9.7 75 2.2 S 13 28 7 15 1018.0 1018.0 1.0
25/05:30pm 14.7 12.3 10.1 74 2.4 SSW 13 22 7 12 1017.6 - 1.0
25/05:00pm 14.6 11.9 10.4 76 2.2 SSW 15 28 8 15 1016.9 - 1.0
25/04:30pm 14.9 12.7 10.9 77 2.1 S 13 24 7 13 1016.5 - 1.0
25/04:00pm 15.2 12.8 11.3 77 2.1 S 15 35 8 19 1015.9 - 1.0
25/03:30pm 15.0 13.3 12.4 84 1.4 SSW 13 22 7 12 1015.6 - 1.0
25/03:00pm 14.8 12.7 12.4 85 1.3 SSW 15 24 8 13 1015.4 1015.4 0.6
25/02:30pm 15.1 13.4 12.5 84 1.4 SW 13 22 7 12 1014.9 - 0.2
25/02:00pm 15.0 12.6 11.3 78 2.0 SW 15 28 8 15 1014.7 - 0.2
25/01:30pm 14.7 12.9 10.9 78 2.0 SSW 11 24 6 13 1014.6 - 0.2
25/01:00pm 15.3 12.5 8.6 64 3.4 SSW 13 26 7 14 1014.6 - 0.2
25/12:30pm 15.0 11.5 10.2 73 2.5 SSW 19 30 10 16 1014.6 - 0.2
25/12:00pm 15.7 11.8 8.6 62 3.6 SW 19 28 10 15 1014.8 1014.8 0.2
25/11:30am 15.9 12.7 8.4 61 3.8 SSW 15 26 8 14 1014.7 - 0.2
25/11:00am 14.1 12.7 10.9 81 1.7 SSW 9 20 5 11 1014.7 - 0.2
25/10:30am 14.9 12.9 8.8 67 3.1 SW 9 17 5 9 1014.4 - 0.2
25/10:00am 14.2 12.3 9.1 71 2.6 WSW 9 15 5 8 1014.3 - 0.2
25/09:30am 13.4 11.4 8.6 73 2.4 SSW 9 15 5 8 1014.0 - 0.2
25/09:00am 12.9 11.0 8.9 76 2.0 WSW 9 15 5 8 1013.6 1013.5 13.0
25/08:30am 12.1 10.2 9.1 82 1.5 W 9 15 5 8 1012.9 - 13.0
25/08:00am 10.8 8.7 8.1 83 1.3 SSW 9 19 5 10 1012.2 - 13.0
25/07:30am 10.0 7.7 7.5 84 1.2 SW 9 17 5 9 1011.2 - 13.0
25/07:00am 10.0 7.6 6.8 80 1.5 S 9 19 5 10 1010.3 - 13.0
25/06:30am 9.8 7.0 6.8 81 1.4 S 11 19 6 10 1009.4 - 13.0
25/06:00am 9.6 7.3 7.3 85 1.1 S 9 19 5 10 1008.5 1008.5 13.0
25/05:30am 9.5 6.5 7.6 88 0.9 SSW 13 22 7 12 1008.0 - 13.0
25/05:00am 8.8 6.6 7.8 93 0.5 SSW 9 17 5 9 1007.2 - 13.0
25/04:30am 8.7 6.5 7.7 93 0.5 SSW 9 17 5 9 1006.5 - 13.0
25/04:00am 8.7 5.7 7.9 95 0.4 SW 13 22 7 12 1005.7 - 13.0
25/03:30am 8.8 6.1 7.5 91 0.6 S 11 22 6 12 1004.7 - 13.0
25/03:00am 9.0 7.3 8.4 96 0.3 SW 7 11 4 6 1003.5 1003.5 13.0
25/02:30am 8.8 8.1 8.4 97 0.2 S 2 7 1 4 1002.5 - 13.0
25/02:00am 9.4 9.1 8.8 96 0.3 CALM 0 7 0 4 1002.0 - 13.0
25/01:30am 9.6 8.6 9.0 96 0.3 SSE 4 9 2 5 1001.8 - 13.0
25/01:00am 9.5 8.1 8.7 95 0.4 NNE 6 13 3 7 1001.6 - 12.4
25/12:30am 9.2 5.9 8.0 92 0.6 NNE 15 24 8 13 1001.5 - 10.6
25/12:00am 9.3 5.9 7.6 89 0.8 NNE 15 39 8 21 1002.0 1002.0 9.4
 
Date/Time
CST
Tmp

°C
App
Tmp
°C
Dew
Point
°C
Rel
Hum
%
Delta-T

°C
Wind Press
QNH
hPa
Press
MSL
hPa
Rain
since
9 am
mm
Dir
 
Spd
km/h
Gust
km/h
Spd
kts
Gust
kts
24/11:30pm 9.3 5.9 7.8 90 0.7 N 15 28 8 15 1002.5 - 9.4
24/11:00pm 9.9 6.1 7.6 85 1.1 N 17 30 9 16 1003.1 - 9.2
24/10:30pm 10.4 6.4 8.4 87 1.0 N 19 30 10 16 1003.5 - 9.2
24/10:00pm 10.9 8.6 8.9 87 1.0 N 11 22 6 12 1003.6 - 8.8
24/09:30pm 11.4 8.6 8.6 83 1.4 N 13 24 7 13 1004.4 - 8.8
24/09:00pm 11.1 8.4 8.9 86 1.1 NNW 13 26 7 14 1004.7 1004.7 8.8
24/08:30pm 10.5 7.8 8.9 90 0.8 NNW 13 28 7 15 1005.5 - 8.8
24/08:00pm 10.8 8.6 9.4 91 0.7 N 11 22 6 12 1005.5 - 4.4
24/07:30pm 11.3 8.2 8.7 84 1.3 N 15 24 8 13 1006.6 - 3.4
24/07:00pm 12.2 9.4 7.0 70 2.5 NW 11 19 6 10 1006.5 - 3.4
24/06:30pm 11.8 10.0 7.9 77 1.9 N 7 11 4 6 1006.8 - 3.4
24/06:00pm 11.8 8.4 7.5 75 2.1 NNW 15 26 8 14 1007.1 1007.1 3.4
24/05:30pm 13.2 10.3 6.6 64 3.2 NW 11 20 6 11 1007.1 - 3.0
24/05:00pm 14.0 10.0 5.0 54 4.2 W 15 26 8 14 1007.4 - 3.0
24/04:30pm 15.1 10.2 5.2 51 4.7 W 20 37 11 20 1007.3 - 3.0
24/04:00pm 15.8 11.8 4.8 48 5.2 W 15 28 8 15 1007.2 - 3.0
24/03:30pm 15.1 11.6 7.2 59 3.9 WNW 15 22 8 12 1007.4 - 3.0
24/03:00pm 16.1 12.1 6.5 53 4.7 WSW 17 28 9 15 1007.4 1007.4 3.0
24/02:30pm 15.9 11.6 6.8 54 4.5 WSW 19 37 10 20 1007.5 - 3.0
24/02:00pm 15.4 11.1 7.8 60 3.8 WSW 20 35 11 19 1007.5 - 3.0
24/01:30pm 14.7 11.1 8.4 66 3.2 WSW 17 30 9 16 1007.5 - 3.0
24/01:00pm 14.4 10.9 8.7 68 2.9 WNW 17 28 9 15 1007.7 - 3.0
24/12:30pm 13.7 11.4 9.0 73 2.4 W 11 24 6 13 1008.2 - 3.0
24/12:00pm 12.9 11.8 10.6 86 1.2 WSW 7 24 4 13 1008.5 1008.5 3.0
24/11:30am 12.7 10.4 10.4 86 1.2 WSW 13 22 7 12 1008.8 - 2.4
24/11:00am 11.9 8.8 10.2 89 0.9 W 17 35 9 19 1009.0 - 2.2
24/10:30am 12.6 8.7 10.7 88 1.0 WSW 22 43 12 23 1008.6 - 1.8
24/10:00am 13.9 11.0 12.8 93 0.6 WSW 20 32 11 17 1008.5 - 1.2
24/09:30am 14.3 12.8 13.2 93 0.6 N 13 20 7 11 1008.2 - 0.2
24/09:00am 13.8 12.2 12.7 93 0.6 N 13 22 7 12 1008.3 1008.3 1.6
24/08:30am 13.6 12.0 12.9 95 0.4 N 13 20 7 11 1008.4 - 1.6
24/08:00am 13.7 11.9 12.2 91 0.8 N 13 22 7 12 1008.5 - 0.0
24/07:30am 13.5 12.0 11.8 89 0.9 N 11 19 6 10 1008.2 - 0.0
24/07:00am 13.4 12.3 11.9 91 0.8 NNE 9 17 5 9 1008.3 - 0.0
24/06:30am 13.4 12.0 12.3 93 0.6 N 11 17 6 9 1008.7 - 0.0
24/06:00am 13.3 12.3 12.2 93 0.6 N 9 17 5 9 1008.8 1008.8 0.0
24/05:30am 13.4 12.9 11.9 91 0.8 NNE 6 13 3 7 1008.8 - 0.0
24/05:00am 13.1 13.7 12.0 93 0.6 CALM 0 0 0 0 1008.9 - 0.0
24/04:30am 13.9 13.4 12.1 89 1.0 N 6 7 3 4 1008.9 - 0.0
24/04:00am 14.5 14.8 12.3 87 1.2 WSW 2 9 1 5 1009.1 - 0.0
24/03:30am 14.6 14.1 12.6 88 1.1 W 7 11 4 6 1009.6 - 0.0
24/03:00am 14.6 15.4 12.6 88 1.1 CALM 0 6 0 3 1009.9 1009.9 0.0
24/02:30am 14.3 15.0 12.3 88 1.1 CALM 0 0 0 0 1010.4 - 0.0
24/02:00am 14.3 15.0 12.3 88 1.1 CALM 0 0 0 0 1010.5 - 0.0
24/01:30am 14.3 13.9 12.3 88 1.1 NNE 6 7 3 4 1010.9 - 0.0
24/01:00am 14.5 15.2 12.1 85 1.3 CALM 0 0 0 0 1011.1 - 0.0
24/12:30am 14.6 15.3 12.2 85 1.3 CALM 0 0 0 0 1011.5 - 0.0
24/12:00am 14.5 15.2 12.1 85 1.3 CALM 0 0 0 0 1011.7 1011.7 0.0
 
Date/Time
CST
Tmp

°C
App
Tmp
°C
Dew
Point
°C
Rel
Hum
%
Delta-T

°C
Wind Press
QNH
hPa
Press
MSL
hPa
Rain
since
9 am
mm
Dir
 
Spd
km/h
Gust
km/h
Spd
kts
Gust
kts
23/11:30pm 14.6 15.2 12.0 84 1.4 CALM 0 0 0 0 1012.1 - 0.0
23/11:00pm 14.6 15.3 12.2 85 1.3 CALM 0 0 0 0 1012.5 - 0.0
23/10:30pm 14.7 15.4 12.3 85 1.3 CALM 0 0 0 0 1013.2 - 0.0
23/10:00pm 14.7 15.4 12.1 84 1.4 CALM 0 0 0 0 1013.3 - 0.0
23/09:30pm 14.6 15.2 12.0 84 1.4 CALM 0 0 0 0 1013.5 - 0.0
23/09:00pm 14.6 14.5 12.0 84 1.4 E 4 7 2 4 1013.8 1013.7 0.0
23/08:30pm 14.7 15.4 12.3 85 1.3 CALM 0 0 0 0 1014.0 - 0.0
23/08:00pm 14.8 15.5 12.2 84 1.4 CALM 0 0 0 0 1014.0 - 0.0
23/07:30pm 14.9 15.6 12.3 84 1.4 CALM 0 0 0 0 1014.1 - 0.0
23/07:00pm 15.1 15.1 12.4 84 1.5 SSW 4 9 2 5 1014.4 - 0.0
23/06:30pm 15.1 15.0 12.2 83 1.6 SSW 4 7 2 4 1014.4 - 0.0
23/06:00pm 15.5 15.8 12.2 81 1.8 S 2 6 1 3 1014.1 1014.0 0.0
23/05:30pm 16.0 15.5 12.0 77 2.2 SSW 6 9 3 5 1014.3 - 0.0
23/05:00pm 16.6 16.1 12.0 74 2.5 WSW 6 9 3 5 1014.4 - 0.0
23/04:30pm 17.2 16.1 12.1 72 2.8 WNW 9 13 5 7 1014.3 - 0.0
23/04:00pm 18.2 17.1 11.8 66 3.5 WNW 9 15 5 8 1014.4 - 0.0
23/03:30pm 19.8 18.4 10.8 56 4.9 W 9 17 5 9 1014.4 - 0.0
23/03:00pm 19.7 18.3 10.9 57 4.8 W 9 17 5 9 1014.5 1014.4 0.0
23/02:30pm 18.8 17.8 11.1 61 4.2 W 7 13 4 7 1014.9 - 0.0
23/02:00pm 18.9 18.1 11.0 60 4.3 WNW 6 13 3 7 1015.1 - 0.0
23/01:30pm 18.1 16.8 11.3 64 3.7 W 9 13 5 7 1015.5 - 0.0
23/01:00pm 17.3 16.6 11.4 68 3.2 WSW 6 9 3 5 1015.8 - 0.0

Latest Capital City Observations: Canberra | Sydney | Melbourne | Brisbane | Adelaide | Perth | Hobart | Darwin

Other Formats:

Comma delimited format used in spreadsheet applications
http://www.bom.gov.au/fwo/IDS60901/IDS60901.94675.axf

JavaScript Object Notation format (JSON) in row-major order
http://www.bom.gov.au/fwo/IDS60901/IDS60901.94675.json